Time;durP1;ratioP1;P1;durP2;ratioP2;P2;SDS_P1;SDS_P2;PMS_P1;PMS_P2;Temp;Humidity;BMP_temperature;BMP_pressure;BME280_temperature;BME280_humidity;BME280_pressure;Samples;Min_cycle;Max_cycle;Signal;HPM_P1;HPM_P2
2022/05/07 00:00:22;;;;;;;;;;;;;;;;;;5056885;28;19932;-74
2022/05/07 00:02:47;;;;;;;;;;;;;;;;;;5057168;28;20257;-74
2022/05/07 00:05:12;;;;;;;;;;;;;;;;;;5055963;28;19925;-73
2022/05/07 00:07:37;;;;;;;;;;;;;;;;;;5056331;28;19917;-74
2022/05/07 00:10:03;;;;;;;;;;;;;;;;;;5055943;28;19921;-74
2022/05/07 00:12:28;;;;;;;;;;;;;;;;;;5055228;28;19931;-74
2022/05/07 00:14:53;;;;;;;;;;;;;;;;;;5055824;28;19916;-74
2022/05/07 00:20:02;;;;;;;;;;;;;;;;;;5055400;28;20504;-74
2022/05/07 00:22:27;;;;;;;;;;;;;;;;;;5055687;28;19917;-75
2022/05/07 00:24:53;;;;;;;;;;;;;;;;;;5056201;28;19928;-74
2022/05/07 00:27:18;;;;;;;;;;;;;;;;;;5055458;28;19917;-75
2022/05/07 00:29:43;;;;;;;;;;;;;;;;;;5056177;28;19917;-74
2022/05/07 00:32:09;;;;;;;;;;;;;;;;;;5055110;28;19932;-75
2022/05/07 00:34:34;;;;;;;;;;;;;;;;;;5056038;28;19944;-76
2022/05/07 00:37:00;;;;;;;;;;;;;;;;;;5038671;28;19917;-75
2022/05/07 00:39:25;;;;;;;;;;;;;;;;;;5038639;28;19956;-75
2022/05/07 00:41:51;;;;;;;;;;;;;;;;;;5056379;28;19948;-75
2022/05/07 00:44:20;;;;;;;;;;;;;;;;;;5038422;28;19921;-75
2022/05/07 00:46:47;;;;;;;;;;;;;;;;;;5055129;28;19928;-75
2022/05/07 00:49:12;;;;;;;;;;;;;;;;;;5038558;28;19920;-75
2022/05/07 00:51:40;;;;;;;;;;;;;;;;;;5038373;28;20058;-75
2022/05/07 00:54:06;;;;;;;;;;;;;;;;;;5037987;28;19921;-73
2022/05/07 00:56:32;;;;;;;;;;;;;;;;;;5055156;28;19916;-74
2022/05/07 00:58:57;;;;;;;;;;;;;;;;;;5055184;28;20245;-74
2022/05/07 01:01:23;;;;;;;;;;;;;;;;;;5048774;28;19925;-74
2022/05/07 01:03:48;;;;;;;;;;;;;;;;;;5055287;28;19917;-74
2022/05/07 01:06:14;;;;;;;;;;;;;;;;;;5055352;28;20296;-74
2022/05/07 01:08:39;;;;;;;;;;;;;;;;;;5054685;28;19927;-74
2022/05/07 01:11:04;;;;;;;;;;;;;;;;;;5038321;28;19935;-74
2022/05/07 01:13:30;;;;;;;;;;;;;;;;;;5036920;28;19921;-74
2022/05/07 01:15:56;;;;;;;;;;;;;;;;;;5055425;28;19952;-74
2022/05/07 01:18:21;;;;;;;;;;;;;;;;;;5054919;28;19916;-74
2022/05/07 01:20:47;;;;;;;;;;;;;;;;;;5037600;28;20365;-75
2022/05/07 01:23:15;;;;;;;;;;;;;;;;;;5054979;28;20134;-74
2022/05/07 01:25:40;;;;;;;;;;;;;;;;;;5054935;28;20372;-74
2022/05/07 01:28:05;;;;;;;;;;;;;;;;;;5037632;28;20004;-74
2022/05/07 01:30:31;;;;;;;;;;;;;;;;;;5053870;28;19916;-73
2022/05/07 01:32:56;;;;;;;;;;;;;;;;;;5037380;28;19921;-74
2022/05/07 01:35:23;;;;;;;;;;;;;;;;;;5055239;28;19921;-74
2022/05/07 01:37:48;;;;;;;;;;;;;;;;;;5054722;28;19925;-74
2022/05/07 01:40:19;;;;;;;;;;;;;;;;;;5055559;28;20058;-75
2022/05/07 01:42:44;;;;;;;;;;;;;;;;;;5037377;28;19916;-73
2022/05/07 01:45:09;;;;;;;;;;;;;;;;;;5036552;28;20415;-74
2022/05/07 01:50:24;;;;;;;;;;;;;;;;;;5040235;28;20297;-73
2022/05/07 01:52:51;;;;;;;;;;;;;;;;;;5054722;28;19921;-73
2022/05/07 01:55:16;;;;;;;;;;;;;;;;;;5054766;28;19916;-73
2022/05/07 01:57:46;;;;;;;;;;;;;;;;;;5054763;28;19927;-73
2022/05/07 02:00:13;;;;;;;;;;;;;;;;;;5054075;28;19923;-73
2022/05/07 02:02:40;;;;;;;;;;;;;;;;;;5053758;28;19917;-73
2022/05/07 02:05:06;;;;;;;;;;;;;;;;;;5053896;28;19913;-73
2022/05/07 02:07:31;;;;;;;;;;;;;;;;;;5054221;28;20370;-73
2022/05/07 02:09:56;;;;;;;;;;;;;;;;;;5054396;28;19917;-73
2022/05/07 02:12:21;;;;;;;;;;;;;;;;;;5053890;28;19921;-74
2022/05/07 02:14:49;;;;;;;;;;;;;;;;;;5053781;28;19917;-74
2022/05/07 02:17:14;;;;;;;;;;;;;;;;;;5053526;28;19944;-73
2022/05/07 02:19:39;;;;;;;;;;;;;;;;;;5053842;28;19967;-73
2022/05/07 02:22:04;;;;;;;;;;;;;;;;;;5053314;28;19956;-73
2022/05/07 02:24:30;;;;;;;;;;;;;;;;;;5054378;28;19948;-73
2022/05/07 02:26:55;;;;;;;;;;;;;;;;;;5053898;28;19999;-73
2022/05/07 02:29:20;;;;;;;;;;;;;;;;;;5053515;28;20003;-73
2022/05/07 02:32:03;;;;;;;;;;;;;;;;;;5052584;28;20015;-73
2022/05/07 02:34:30;;;;;;;;;;;;;;;;;;5054207;28;19925;-74
2022/05/07 02:36:55;;;;;;;;;;;;;;;;;;5035965;28;19916;-74
2022/05/07 02:39:20;;;;;;;;;;;;;;;;;;5053597;28;19920;-73
2022/05/07 02:44:29;;;;;;;;;;;;;;;;;;5051878;28;19927;-74
2022/05/07 02:46:57;;;;;;;;;;;;;;;;;;5035690;28;19917;-73
2022/05/07 02:49:24;;;;;;;;;;;;;;;;;;5053213;28;19917;-74
2022/05/07 02:51:54;;;;;;;;;;;;;;;;;;5053584;28;20326;-73
2022/05/07 02:54:22;;;;;;;;;;;;;;;;;;5053036;28;19920;-74
2022/05/07 02:56:49;;;;;;;;;;;;;;;;;;5053788;28;19928;-74
2022/05/07 02:59:17;;;;;;;;;;;;;;;;;;5052380;28;19920;-73
2022/05/07 03:01:42;;;;;;;;;;;;;;;;;;5052056;28;19954;-74
2022/05/07 03:04:07;;;;;;;;;;;;;;;;;;5052931;28;19925;-74
2022/05/07 03:06:35;;;;;;;;;;;;;;;;;;5036223;28;19929;-74
2022/05/07 03:09:00;;;;;;;;;;;;;;;;;;5035836;28;19917;-74
2022/05/07 03:11:28;;;;;;;;;;;;;;;;;;5051633;28;19927;-74
2022/05/07 03:13:53;;;;;;;;;;;;;;;;;;5053420;28;20346;-74
2022/05/07 03:16:18;;;;;;;;;;;;;;;;;;5053435;28;19927;-74
2022/05/07 03:18:44;;;;;;;;;;;;;;;;;;5019545;28;19913;-74
2022/05/07 03:21:09;;;;;;;;;;;;;;;;;;5053653;28;20254;-74
2022/05/07 03:23:34;;;;;;;;;;;;;;;;;;5052901;28;20684;-74
2022/05/07 03:25:59;;;;;;;;;;;;;;;;;;5052760;28;20269;-74
2022/05/07 03:28:27;;;;;;;;;;;;;;;;;;5054878;28;20011;-74
2022/05/07 03:30:54;;;;;;;;;;;;;;;;;;5053090;28;19952;-73
2022/05/07 03:33:19;;;;;;;;;;;;;;;;;;5035575;28;20369;-73
2022/05/07 03:35:45;;;;;;;;;;;;;;;;;;5053309;28;19916;-74
2022/05/07 03:38:10;;;;;;;;;;;;;;;;;;5035181;28;19921;-74
2022/05/07 03:40:35;;;;;;;;;;;;;;;;;;5034799;28;20338;-74
2022/05/07 03:43:03;;;;;;;;;;;;;;;;;;5052903;28;19917;-74
2022/05/07 03:45:32;;;;;;;;;;;;;;;;;;5034824;28;19917;-74
2022/05/07 03:48:02;;;;;;;;;;;;;;;;;;5053057;28;19923;-74
2022/05/07 03:50:27;;;;;;;;;;;;;;;;;;5049952;28;19912;-74
2022/05/07 03:55:42;;;;;;;;;;;;;;;;;;5052981;28;19928;-75
2022/05/07 03:58:15;;;;;;;;;;;;;;;;;;5055592;28;19917;-75
2022/05/07 04:00:42;;;;;;;;;;;;;;;;;;5054915;28;19921;-74
2022/05/07 04:03:07;;;;;;;;;;;;;;;;;;5055723;28;20249;-74
2022/05/07 04:05:32;;;;;;;;;;;;;;;;;;5055467;28;19920;-75
2022/05/07 04:07:58;;;;;;;;;;;;;;;;;;5055181;28;19921;-75
2022/05/07 04:10:23;;;;;;;;;;;;;;;;;;5056596;28;20290;-75
2022/05/07 04:12:51;;;;;;;;;;;;;;;;;;5039092;28;19932;-75
2022/05/07 04:15:16;;;;;;;;;;;;;;;;;;5056887;28;19925;-75
2022/05/07 04:17:44;;;;;;;;;;;;;;;;;;5056107;28;19974;-76
2022/05/07 04:20:12;;;;;;;;;;;;;;;;;;5038614;28;19925;-76
2022/05/07 04:22:37;;;;;;;;;;;;;;;;;;5038899;28;19916;-75
2022/05/07 04:25:03;;;;;;;;;;;;;;;;;;5035188;28;19928;-75
2022/05/07 04:27:28;;;;;;;;;;;;;;;;;;5058687;28;19948;-75
2022/05/07 04:29:57;;;;;;;;;;;;;;;;;;5055855;28;19916;-75
2022/05/07 04:32:22;;;;;;;;;;;;;;;;;;5055177;28;20410;-75
2022/05/07 04:34:48;;;;;;;;;;;;;;;;;;5055620;28;19925;-75
2022/05/07 04:37:13;;;;;;;;;;;;;;;;;;5055338;28;20261;-74
2022/05/07 04:39:38;;;;;;;;;;;;;;;;;;5056003;28;20361;-75
2022/05/07 04:42:03;;;;;;;;;;;;;;;;;;5055817;28;20346;-75
2022/05/07 04:44:29;;;;;;;;;;;;;;;;;;5056284;28;20254;-74
2022/05/07 04:46:54;;;;;;;;;;;;;;;;;;5055131;28;21608;-74
2022/05/07 04:49:21;;;;;;;;;;;;;;;;;;5038170;28;19917;-75
2022/05/07 04:51:48;;;;;;;;;;;;;;;;;;5055032;28;19982;-74
2022/05/07 04:54:13;;;;;;;;;;;;;;;;;;5037458;28;19951;-75
2022/05/07 04:56:38;;;;;;;;;;;;;;;;;;5054891;28;19939;-75
2022/05/07 04:59:03;;;;;;;;;;;;;;;;;;5054619;28;19917;-74
2022/05/07 05:01:31;;;;;;;;;;;;;;;;;;5055559;28;19925;-74
2022/05/07 05:03:58;;;;;;;;;;;;;;;;;;5055555;28;19963;-75
2022/05/07 05:06:24;;;;;;;;;;;;;;;;;;5055072;28;19931;-75
2022/05/07 05:08:54;;;;;;;;;;;;;;;;;;5054915;28;19917;-75
2022/05/07 05:11:19;;;;;;;;;;;;;;;;;;5055925;28;19977;-76
2022/05/07 05:13:45;;;;;;;;;;;;;;;;;;5036744;28;19924;-75
2022/05/07 05:16:10;;;;;;;;;;;;;;;;;;5054278;28;19924;-74
2022/05/07 05:18:37;;;;;;;;;;;;;;;;;;5054797;28;19925;-74
2022/05/07 05:21:02;;;;;;;;;;;;;;;;;;5052445;28;20373;-75
2022/05/07 05:23:28;;;;;;;;;;;;;;;;;;5054613;28;19924;-75
2022/05/07 05:25:53;;;;;;;;;;;;;;;;;;5037740;28;19920;-75
2022/05/07 05:28:18;;;;;;;;;;;;;;;;;;5054747;28;19936;-75
2022/05/07 05:30:44;;;;;;;;;;;;;;;;;;5053823;28;19978;-74
2022/05/07 05:33:11;;;;;;;;;;;;;;;;;;5055068;28;20342;-76
2022/05/07 05:35:36;;;;;;;;;;;;;;;;;;5054417;28;19971;-76
2022/05/07 05:38:01;;;;;;;;;;;;;;;;;;5054812;28;20327;-75
2022/05/07 05:40:27;;;;;;;;;;;;;;;;;;5052465;28;20286;-75
2022/05/07 05:42:54;;;;;;;;;;;;;;;;;;5053863;28;20382;-75
2022/05/07 05:45:19;;;;;;;;;;;;;;;;;;5054801;28;20012;-75
2022/05/07 05:47:45;;;;;;;;;;;;;;;;;;5053993;28;19999;-75
2022/05/07 05:50:10;;;;;;;;;;;;;;;;;;5054275;28;19999;-72
2022/05/07 05:52:35;;;;;;;;;;;;;;;;;;5052969;28;19921;-72
2022/05/07 05:55:00;;;;;;;;;;;;;;;;;;5054327;28;20269;-72
2022/05/07 05:57:26;;;;;;;;;;;;;;;;;;5054622;28;19917;-73
2022/05/07 05:59:51;;;;;;;;;;;;;;;;;;5053779;28;19931;-73
2022/05/07 06:02:18;;;;;;;;;;;;;;;;;;5053543;28;19916;-75
2022/05/07 06:04:43;;;;;;;;;;;;;;;;;;5054484;28;20397;-75
2022/05/07 06:07:08;;;;;;;;;;;;;;;;;;5054671;28;19924;-74
2022/05/07 06:09:34;;;;;;;;;;;;;;;;;;5034025;28;19921;-74
2022/05/07 06:11:59;;;;;;;;;;;;;;;;;;5036482;28;20444;-75
2022/05/07 06:14:25;;;;;;;;;;;;;;;;;;5053813;28;19925;-75
2022/05/07 06:16:53;;;;;;;;;;;;;;;;;;5053186;28;20380;-76
2022/05/07 06:19:18;;;;;;;;;;;;;;;;;;5052865;28;19916;-75
2022/05/07 06:21:43;;;;;;;;;;;;;;;;;;5051842;28;19925;-75
2022/05/07 06:29:36;;;;;;;;;;;;;;;;;;5052370;28;19927;-75
2022/05/07 06:32:02;;;;;;;;;;;;;;;;;;5053195;28;20270;-75
2022/05/07 06:34:27;;;;;;;;;;;;;;;;;;5054425;28;20368;-75
2022/05/07 06:36:54;;;;;;;;;;;;;;;;;;5052825;28;20000;-75
2022/05/07 06:39:20;;;;;;;;;;;;;;;;;;5051906;28;20006;-75
2022/05/07 06:41:46;;;;;;;;;;;;;;;;;;5054293;28;20016;-75
2022/05/07 06:44:11;;;;;;;;;;;;;;;;;;5053160;28;20317;-75
2022/05/07 06:46:37;;;;;;;;;;;;;;;;;;5053467;28;19917;-75
2022/05/07 06:49:03;;;;;;;;;;;;;;;;;;5035845;28;20477;-75
2022/05/07 06:51:28;;;;;;;;;;;;;;;;;;5053518;28;19922;-75
2022/05/07 06:53:55;;;;;;;;;;;;;;;;;;5053694;28;19990;-75
2022/05/07 06:56:23;;;;;;;;;;;;;;;;;;5053102;28;19917;-75
2022/05/07 06:58:50;;;;;;;;;;;;;;;;;;5051812;28;19913;-73
2022/05/07 07:01:18;;;;;;;;;;;;;;;;;;5052968;28;19921;-72
2022/05/07 07:03:43;;;;;;;;;;;;;;;;;;5035517;28;19912;-72
2022/05/07 07:06:10;;;;;;;;;;;;;;;;;;5053301;28;19947;-73
2022/05/07 07:08:36;;;;;;;;;;;;;;;;;;5053669;28;20342;-72
2022/05/07 07:11:01;;;;;;;;;;;;;;;;;;5051718;28;19917;-73
2022/05/07 07:13:28;;;;;;;;;;;;;;;;;;5052265;28;20358;-73
2022/05/07 07:15:54;;;;;;;;;;;;;;;;;;5051069;28;20273;-73
2022/05/07 07:18:20;;;;;;;;;;;;;;;;;;5050165;28;19913;-73
2022/05/07 07:20:49;;;;;;;;;;;;;;;;;;5052974;28;19928;-73
2022/05/07 07:23:14;;;;;;;;;;;;;;;;;;5036343;28;19960;-73
2022/05/07 07:25:40;;;;;;;;;;;;;;;;;;5053562;28;19956;-73
2022/05/07 07:28:06;;;;;;;;;;;;;;;;;;5035988;28;19912;-73
2022/05/07 07:30:31;;;;;;;;;;;;;;;;;;5036336;28;20261;-74
2022/05/07 07:32:57;;;;;;;;;;;;;;;;;;5057023;28;19956;-74
2022/05/07 07:35:22;;;;;;;;;;;;;;;;;;5056650;28;19921;-74
2022/05/07 07:37:47;;;;;;;;;;;;;;;;;;5036661;28;19946;-73
2022/05/07 07:40:15;;;;;;;;;;;;;;;;;;5056778;28;19924;-73
2022/05/07 07:42:43;;;;;;;;;;;;;;;;;;5054191;28;20005;-74
2022/05/07 07:47:59;;;;;;;;;;;;;;;;;;5056798;28;19928;-73
2022/05/07 07:50:25;;;;;;;;;;;;;;;;;;5039793;28;20357;-73
2022/05/07 07:52:53;;;;;;;;;;;;;;;;;;5056129;28;19994;-74
2022/05/07 07:55:19;;;;;;;;;;;;;;;;;;5034493;28;20073;-76
2022/05/07 07:57:46;;;;;;;;;;;;;;;;;;5056516;28;20386;-73
2022/05/07 08:00:12;;;;;;;;;;;;;;;;;;5055706;28;19917;-73
2022/05/07 08:03:06;;;;;;;;;;;;;;;;;;5038785;28;19928;-75
2022/05/07 08:05:33;;;;;;;;;;;;;;;;;;5040554;28;20278;-75
2022/05/07 08:13:27;;;;;;;;;;;;;;;;;;5042129;28;20517;-75
2022/05/07 08:15:52;;;;;;;;;;;;;;;;;;5039263;28;19916;-75
2022/05/07 08:18:18;;;;;;;;;;;;;;;;;;5056802;28;19942;-76
2022/05/07 08:20:43;;;;;;;;;;;;;;;;;;5054784;28;19936;-75
2022/05/07 08:23:11;;;;;;;;;;;;;;;;;;5056832;28;19913;-76
2022/05/07 08:25:36;;;;;;;;;;;;;;;;;;5039487;28;20321;-75
2022/05/07 08:28:02;;;;;;;;;;;;;;;;;;5038511;28;19995;-75
2022/05/07 08:30:27;;;;;;;;;;;;;;;;;;5039192;28;19917;-75
2022/05/07 08:32:53;;;;;;;;;;;;;;;;;;5037504;28;19929;-74
2022/05/07 08:35:20;;;;;;;;;;;;;;;;;;5056033;28;19952;-74
2022/05/07 08:37:45;;;;;;;;;;;;;;;;;;5055923;28;19935;-74
2022/05/07 08:40:14;;;;;;;;;;;;;;;;;;5055146;28;19916;-76
2022/05/07 08:42:39;;;;;;;;;;;;;;;;;;5050650;28;19913;-75
2022/05/07 08:45:05;;;;;;;;;;;;;;;;;;5054931;28;19927;-75
2022/05/07 08:47:30;;;;;;;;;;;;;;;;;;5054722;28;20318;-76
2022/05/07 08:50:00;;;;;;;;;;;;;;;;;;5038673;28;19913;-82
2022/05/07 08:52:29;;;;;;;;;;;;;;;;;;5038573;28;19925;-81
2022/05/07 08:55:06;;;;;;;;;;;;;;;;;;5060066;28;19917;-81
2022/05/07 08:57:31;;;;;;;;;;;;;;;;;;5043957;28;20015;-82
2022/05/07 08:59:59;;;;;;;;;;;;;;;;;;5055941;28;20016;-83
2022/05/07 09:02:24;;;;;;;;;;;;;;;;;;5054869;28;19932;-83
2022/05/07 09:04:58;;;;;;;;;;;;;;;;;;5055490;28;20015;-83
2022/05/07 09:07:24;;;;;;;;;;;;;;;;;;5037803;28;19932;-83
2022/05/07 09:09:52;;;;;;;;;;;;;;;;;;5054763;28;19916;-82
2022/05/07 09:12:29;;;;;;;;;;;;;;;;;;5054604;28;20358;-83
2022/05/07 09:15:01;;;;;;;;;;;;;;;;;;5051329;28;19917;-83
2022/05/07 09:17:32;;;;;;;;;;;;;;;;;;5054081;28;19917;-82
2022/05/07 09:19:59;;;;;;;;;;;;;;;;;;5054708;28;20406;-81
2022/05/07 09:22:25;;;;;;;;;;;;;;;;;;5053463;28;19917;-83
2022/05/07 09:24:56;;;;;;;;;;;;;;;;;;5021763;28;19916;-84
2022/05/07 09:27:24;;;;;;;;;;;;;;;;;;5053702;28;19920;-86
2022/05/07 09:29:59;;;;;;;;;;;;;;;;;;5037296;28;19955;-87
2022/05/07 09:32:33;;;;;;;;;;;;;;;;;;5037357;28;19987;-82
2022/05/07 09:37:44;;;;;;;;;;;;;;;;;;5055279;28;19931;-85
2022/05/07 09:40:10;;;;;;;;;;;;;;;;;;5053919;28;20366;-87
2022/05/07 09:42:38;;;;;;;;;;;;;;;;;;5054726;28;19920;-82
2022/05/07 09:45:04;;;;;;;;;;;;;;;;;;5052771;28;19924;-86
2022/05/07 10:01:35;;;;;;;;;;;;;;;;;;5052594;28;19940;-80
2022/05/07 10:04:15;;;;;;;;;;;;;;;;;;5054416;28;20415;-79
2022/05/07 10:06:50;;;;;;;;;;;;;;;;;;5053596;28;20353;-80
2022/05/07 10:09:36;;;;;;;;;;;;;;;;;;5036448;28;20376;-80
2022/05/07 10:12:01;;;;;;;;;;;;;;;;;;5054407;28;19917;-80
2022/05/07 10:14:30;;;;;;;;;;;;;;;;;;5035719;28;19929;-79
2022/05/07 10:17:15;;;;;;;;;;;;;;;;;;5035551;28;19925;-84
2022/05/07 10:19:44;;;;;;;;;;;;;;;;;;5053190;28;20301;-81
2022/05/07 10:22:21;;;;;;;;;;;;;;;;;;5034796;28;19927;-84
2022/05/07 10:24:46;;;;;;;;;;;;;;;;;;5053304;28;19925;-80
2022/05/07 10:27:19;;;;;;;;;;;;;;;;;;5054822;28;19970;-79
2022/05/07 10:29:47;;;;;;;;;;;;;;;;;;5048191;28;19917;-81
2022/05/07 10:32:12;;;;;;;;;;;;;;;;;;5054541;28;19917;-81
2022/05/07 10:34:38;;;;;;;;;;;;;;;;;;5053305;28;20031;-81
2022/05/07 10:37:04;;;;;;;;;;;;;;;;;;5053399;28;19998;-80
2022/05/07 10:39:31;;;;;;;;;;;;;;;;;;5052178;28;19923;-81
2022/05/07 10:42:00;;;;;;;;;;;;;;;;;;5053970;28;19970;-80
2022/05/07 10:44:37;;;;;;;;;;;;;;;;;;5035102;28;20361;-82
2022/05/07 10:47:11;;;;;;;;;;;;;;;;;;5052669;28;19921;-82
2022/05/07 10:49:52;;;;;;;;;;;;;;;;;;5052743;28;19928;-82
2022/05/07 10:52:27;;;;;;;;;;;;;;;;;;5054403;28;19924;-84
2022/05/07 10:55:02;;;;;;;;;;;;;;;;;;5034903;28;19925;-80
2022/05/07 10:57:36;;;;;;;;;;;;;;;;;;5054000;28;20042;-84
2022/05/07 11:00:01;;;;;;;;;;;;;;;;;;5052379;28;20357;-84
2022/05/07 11:02:30;;;;;;;;;;;;;;;;;;5055601;28;19995;-87
2022/05/07 11:04:55;;;;;;;;;;;;;;;;;;5036480;28;20028;-90
2022/05/07 11:07:20;;;;;;;;;;;;;;;;;;5061238;28;20410;-90
2022/05/07 11:09:52;;;;;;;;;;;;;;;;;;5043831;28;19973;-88
2022/05/07 11:12:18;;;;;;;;;;;;;;;;;;5040711;28;19921;-88
2022/05/07 11:14:46;;;;;;;;;;;;;;;;;;5046025;28;20346;-82
2022/05/07 11:17:33;;;;;;;;;;;;;;;;;;5061390;28;19929;-85
2022/05/07 11:19:59;;;;;;;;;;;;;;;;;;5041158;28;19972;-88
2022/05/07 11:22:29;;;;;;;;;;;;;;;;;;5042911;28;19916;-87
2022/05/07 11:24:57;;;;;;;;;;;;;;;;;;5042325;28;20339;-86
2022/05/07 11:27:25;;;;;;;;;;;;;;;;;;5046785;28;19917;-86
2022/05/07 11:29:51;;;;;;;;;;;;;;;;;;5042086;28;19944;-84
2022/05/07 11:32:16;;;;;;;;;;;;;;;;;;5045193;28;19928;-82
2022/05/07 11:34:43;;;;;;;;;;;;;;;;;;5057003;28;19917;-84
2022/05/07 11:37:20;;;;;;;;;;;;;;;;;;5056572;28;19916;-85
2022/05/07 11:39:54;;;;;;;;;;;;;;;;;;5038131;28;19917;-83
2022/05/07 11:42:31;;;;;;;;;;;;;;;;;;5057157;28;19916;-90
2022/05/07 11:47:53;;;;;;;;;;;;;;;;;;5041847;28;19986;-85
2022/05/07 11:50:22;;;;;;;;;;;;;;;;;;5040072;28;19917;-88
2022/05/07 11:52:48;;;;;;;;;;;;;;;;;;5057288;28;19932;-87
2022/05/07 11:55:13;;;;;;;;;;;;;;;;;;5052838;28;20015;-92
2022/05/07 11:57:39;;;;;;;;;;;;;;;;;;5037005;28;19916;-81
2022/05/07 12:00:15;;;;;;;;;;;;;;;;;;5054673;28;20000;-81
2022/05/07 12:02:47;;;;;;;;;;;;;;;;;;5055416;28;19917;-82
2022/05/07 12:05:15;;;;;;;;;;;;;;;;;;5056692;28;19996;-84
2022/05/07 12:10:24;;;;;;;;;;;;;;;;;;5041943;28;20024;-87
2022/05/07 12:12:49;;;;;;;;;;;;;;;;;;5052792;28;20019;-86
2022/05/07 12:18:25;;;;;;;;;;;;;;;;;;5054965;28;19923;-87
2022/05/07 12:20:56;;;;;;;;;;;;;;;;;;5057200;28;19913;-84
2022/05/07 12:31:57;;;;;;;;;;;;;;;;;;5041522;28;20414;-85
2022/05/07 12:34:23;;;;;;;;;;;;;;;;;;5039311;28;19978;-85
2022/05/07 12:36:48;;;;;;;;;;;;;;;;;;5039119;28;19921;-84
2022/05/07 12:42:16;;;;;;;;;;;;;;;;;;5056488;28;20262;-83
2022/05/07 12:44:42;;;;;;;;;;;;;;;;;;5055497;28;19916;-82
2022/05/07 12:47:07;;;;;;;;;;;;;;;;;;5056130;28;20025;-82
2022/05/07 12:49:33;;;;;;;;;;;;;;;;;;5035333;28;19909;-83
2022/05/07 12:51:58;;;;;;;;;;;;;;;;;;5052992;28;20002;-80
2022/05/07 12:54:23;;;;;;;;;;;;;;;;;;5054357;28;19928;-81
2022/05/07 12:56:49;;;;;;;;;;;;;;;;;;5055610;28;20304;-82
2022/05/07 12:59:14;;;;;;;;;;;;;;;;;;5035633;28;20247;-81
2022/05/07 13:01:39;;;;;;;;;;;;;;;;;;5056296;28;19921;-80
2022/05/07 13:04:05;;;;;;;;;;;;;;;;;;5038898;28;19912;-81
2022/05/07 13:06:30;;;;;;;;;;;;;;;;;;5056370;28;19936;-82
2022/05/07 13:09:00;;;;;;;;;;;;;;;;;;5038970;28;19913;-83
2022/05/07 13:11:26;;;;;;;;;;;;;;;;;;5055684;28;19943;-85
2022/05/07 13:13:56;;;;;;;;;;;;;;;;;;5056001;28;19917;-82
2022/05/07 13:16:22;;;;;;;;;;;;;;;;;;5038340;28;20019;-82
2022/05/07 13:18:47;;;;;;;;;;;;;;;;;;5038499;28;20007;-84
2022/05/07 13:21:12;;;;;;;;;;;;;;;;;;5055621;28;19917;-79
2022/05/07 13:23:38;;;;;;;;;;;;;;;;;;5056002;28;20342;-80
2022/05/07 13:26:03;;;;;;;;;;;;;;;;;;5055568;28;19916;-80
2022/05/07 13:28:28;;;;;;;;;;;;;;;;;;5055451;28;19913;-80
2022/05/07 13:30:56;;;;;;;;;;;;;;;;;;5054998;28;20391;-81
2022/05/07 13:33:21;;;;;;;;;;;;;;;;;;5055841;28;19917;-81
2022/05/07 13:35:47;;;;;;;;;;;;;;;;;;5054334;28;19928;-81
2022/05/07 13:38:12;;;;;;;;;;;;;;;;;;5055598;28;19916;-82
2022/05/07 13:40:37;;;;;;;;;;;;;;;;;;5021757;28;20268;-83
2022/05/07 13:43:03;;;;;;;;;;;;;;;;;;5055374;28;20361;-82
2022/05/07 13:45:35;;;;;;;;;;;;;;;;;;5053899;28;19916;-81
2022/05/07 13:48:00;;;;;;;;;;;;;;;;;;5054139;28;19916;-80
2022/05/07 13:50:29;;;;;;;;;;;;;;;;;;5052317;28;20321;-78
2022/05/07 13:52:54;;;;;;;;;;;;;;;;;;5055050;28;19964;-78
2022/05/07 13:55:19;;;;;;;;;;;;;;;;;;5036292;28;19955;-77
2022/05/07 13:57:44;;;;;;;;;;;;;;;;;;5054287;28;20404;-78
2022/05/07 14:00:16;;;;;;;;;;;;;;;;;;5054153;28;19913;-75
2022/05/07 14:02:45;;;;;;;;;;;;;;;;;;5053932;28;19917;-77
2022/05/07 14:05:11;;;;;;;;;;;;;;;;;;5052265;28;19912;-77
2022/05/07 14:07:37;;;;;;;;;;;;;;;;;;5048995;28;19917;-77
2022/05/07 14:10:03;;;;;;;;;;;;;;;;;;5054326;28;19913;-77
2022/05/07 14:12:28;;;;;;;;;;;;;;;;;;5052421;28;20365;-76
2022/05/07 14:14:54;;;;;;;;;;;;;;;;;;5044399;28;20054;-77
2022/05/07 14:17:21;;;;;;;;;;;;;;;;;;5049869;28;19917;-77
2022/05/07 14:19:49;;;;;;;;;;;;;;;;;;5053199;28;19933;-77
2022/05/07 14:22:15;;;;;;;;;;;;;;;;;;5015973;28;20375;-78
2022/05/07 14:24:43;;;;;;;;;;;;;;;;;;5036862;28;20337;-78
2022/05/07 14:27:08;;;;;;;;;;;;;;;;;;5053760;28;19913;-78
2022/05/07 14:29:34;;;;;;;;;;;;;;;;;;5052198;28;19925;-78
2022/05/07 14:32:02;;;;;;;;;;;;;;;;;;5054131;28;19921;-79
2022/05/07 14:34:29;;;;;;;;;;;;;;;;;;5035567;28;20007;-77
2022/05/07 14:36:57;;;;;;;;;;;;;;;;;;5054441;28;19921;-77
2022/05/07 14:39:22;;;;;;;;;;;;;;;;;;5053359;28;19916;-77
2022/05/07 14:41:47;;;;;;;;;;;;;;;;;;5054546;28;19920;-76
2022/05/07 14:44:13;;;;;;;;;;;;;;;;;;5053931;28;19978;-76
2022/05/07 14:46:38;;;;;;;;;;;;;;;;;;5054185;28;19927;-77
2022/05/07 14:49:05;;;;;;;;;;;;;;;;;;5054463;28;19935;-77
2022/05/07 14:51:31;;;;;;;;;;;;;;;;;;5053557;28;19928;-77
2022/05/07 14:53:56;;;;;;;;;;;;;;;;;;5053948;28;19921;-78
2022/05/07 14:56:21;;;;;;;;;;;;;;;;;;5053131;28;19928;-77
2022/05/07 14:58:49;;;;;;;;;;;;;;;;;;5018054;28;19927;-76
2022/05/07 15:01:17;;;;;;;;;;;;;;;;;;5035704;28;19921;-77
2022/05/07 15:03:45;;;;;;;;;;;;;;;;;;5049177;28;20004;-78
2022/05/07 15:06:14;;;;;;;;;;;;;;;;;;5050719;28;19931;-77
2022/05/07 15:11:23;;;;;;;;;;;;;;;;;;5053508;28;19928;-78
2022/05/07 15:13:57;;;;;;;;;;;;;;;;;;5048972;28;19921;-77
2022/05/07 15:16:23;;;;;;;;;;;;;;;;;;5034765;28;20269;-78
2022/05/07 15:18:51;;;;;;;;;;;;;;;;;;5052893;28;19925;-79
2022/05/07 15:21:18;;;;;;;;;;;;;;;;;;5052380;28;20031;-79
2022/05/07 15:23:43;;;;;;;;;;;;;;;;;;5053447;28;19917;-79
2022/05/07 15:26:08;;;;;;;;;;;;;;;;;;5052746;28;19917;-79
2022/05/07 15:28:34;;;;;;;;;;;;;;;;;;5053416;28;19921;-80
2022/05/07 15:30:59;;;;;;;;;;;;;;;;;;5053007;28;20015;-78
2022/05/07 15:38:53;;;;;;;;;;;;;;;;;;5050776;28;19923;-81
2022/05/07 15:41:18;;;;;;;;;;;;;;;;;;5052654;28;19921;-80
2022/05/07 15:43:47;;;;;;;;;;;;;;;;;;5053567;28;20267;-78
2022/05/07 15:46:14;;;;;;;;;;;;;;;;;;5034666;28;19921;-81
2022/05/07 15:48:44;;;;;;;;;;;;;;;;;;5052452;28;20342;-80
2022/05/07 15:51:10;;;;;;;;;;;;;;;;;;5053067;28;20239;-80
2022/05/07 15:53:35;;;;;;;;;;;;;;;;;;5055216;28;19921;-80
2022/05/07 15:56:01;;;;;;;;;;;;;;;;;;5054064;28;19921;-81
2022/05/07 15:58:26;;;;;;;;;;;;;;;;;;5051763;28;19923;-79
2022/05/07 16:00:53;;;;;;;;;;;;;;;;;;5056439;28;19917;-78
2022/05/07 16:03:18;;;;;;;;;;;;;;;;;;5055913;28;19927;-82
2022/05/07 16:05:44;;;;;;;;;;;;;;;;;;5055702;28;19921;-81
2022/05/07 16:08:09;;;;;;;;;;;;;;;;;;5056765;28;20011;-79
2022/05/07 16:10:34;;;;;;;;;;;;;;;;;;5036853;28;19928;-82
2022/05/07 16:13:01;;;;;;;;;;;;;;;;;;5050706;28;20350;-81
2022/05/07 16:15:54;;;;;;;;;;;;;;;;;;5053004;28;19927;-82
2022/05/07 16:18:29;;;;;;;;;;;;;;;;;;5052450;28;19944;-82
2022/05/07 16:20:55;;;;;;;;;;;;;;;;;;5054603;28;19921;-80
2022/05/07 16:26:07;;;;;;;;;;;;;;;;;;5052424;28;19970;-80
2022/05/07 16:28:32;;;;;;;;;;;;;;;;;;5055250;28;19924;-80
2022/05/07 16:31:00;;;;;;;;;;;;;;;;;;5055649;28;19970;-79
2022/05/07 16:33:31;;;;;;;;;;;;;;;;;;5054917;28;19971;-80
2022/05/07 16:35:59;;;;;;;;;;;;;;;;;;5054868;28;19924;-82
2022/05/07 16:38:25;;;;;;;;;;;;;;;;;;5054930;28;20011;-79
2022/05/07 16:40:50;;;;;;;;;;;;;;;;;;5055765;28;20294;-80
2022/05/07 16:43:15;;;;;;;;;;;;;;;;;;5055215;28;19917;-81
2022/05/07 16:45:40;;;;;;;;;;;;;;;;;;5054694;28;19917;-81
2022/05/07 16:48:11;;;;;;;;;;;;;;;;;;5055012;28;19978;-82
2022/05/07 16:50:37;;;;;;;;;;;;;;;;;;5054180;28;19917;-81
2022/05/07 16:53:02;;;;;;;;;;;;;;;;;;5054245;28;20011;-82
2022/05/07 16:55:27;;;;;;;;;;;;;;;;;;5036500;28;20047;-80
2022/05/07 16:57:52;;;;;;;;;;;;;;;;;;5055208;28;19928;-81
2022/05/07 17:00:19;;;;;;;;;;;;;;;;;;5056254;28;20393;-80
2022/05/07 17:02:46;;;;;;;;;;;;;;;;;;5052281;28;19924;-84
2022/05/07 17:05:11;;;;;;;;;;;;;;;;;;5054941;28;20537;-85
2022/05/07 17:07:42;;;;;;;;;;;;;;;;;;5050937;28;19924;-81
2022/05/07 17:10:08;;;;;;;;;;;;;;;;;;5048945;28;19916;-81
2022/05/07 17:12:36;;;;;;;;;;;;;;;;;;5050277;28;20185;-79
2022/05/07 17:15:15;;;;;;;;;;;;;;;;;;5034148;28;19933;-88
2022/05/07 17:17:40;;;;;;;;;;;;;;;;;;5040818;28;20021;-84
2022/05/07 17:20:06;;;;;;;;;;;;;;;;;;5037087;28;19928;-86
2022/05/07 17:22:33;;;;;;;;;;;;;;;;;;5053374;28;19917;-85
2022/05/07 17:24:59;;;;;;;;;;;;;;;;;;5050262;28;19917;-83
2022/05/07 17:27:28;;;;;;;;;;;;;;;;;;5034981;28;20276;-85
2022/05/07 17:29:53;;;;;;;;;;;;;;;;;;5050808;28;19925;-88
2022/05/07 17:32:18;;;;;;;;;;;;;;;;;;5051203;28;19917;-85
2022/05/07 17:34:46;;;;;;;;;;;;;;;;;;5014237;28;19925;-85
2022/05/07 17:37:13;;;;;;;;;;;;;;;;;;5050069;28;20368;-87
2022/05/07 17:39:41;;;;;;;;;;;;;;;;;;5050270;28;20278;-84
2022/05/07 17:42:06;;;;;;;;;;;;;;;;;;5053945;28;20022;-86
2022/05/07 17:44:31;;;;;;;;;;;;;;;;;;5053186;28;19967;-84
2022/05/07 17:46:57;;;;;;;;;;;;;;;;;;5032797;28;19939;-86
2022/05/07 17:49:24;;;;;;;;;;;;;;;;;;5053139;28;19960;-88
2022/05/07 17:51:50;;;;;;;;;;;;;;;;;;5035865;28;19924;-87
2022/05/07 17:54:16;;;;;;;;;;;;;;;;;;5034118;28;19935;-86
2022/05/07 17:56:42;;;;;;;;;;;;;;;;;;5034411;28;19917;-86